Nacogdoches, TX (75964)

4:47 PM CDT on August 31, 2016 (GMT -0500)
MesoWest | | Change Station

Elev 304 ft 31.54 °N, 94.66 °W | Updated 1 hour ago

Mostly Cloudy
Mostly Cloudy
90 °F
Feels Like 87 °F
N
Wind Variable Wind from North
Gusts 0.0 mph

Today
High -- | Low -- °F
--% Chance of Precip.
Yesterday
High -- | Low -- °F
Precip. -- in
Pressure 29.88 in
Visibility 10.0 miles
Clouds Scattered Clouds 4500 ft
Mostly Cloudy 7000 ft
Mostly Cloudy 9500 ft
Heat Index 87 °F
Dew Point Not available.
Humidity Not available.
Rainfall in
Snow Depth Not available.
6:54 AM 7:42 PM
Waning Crescent, 0% visible
METAR KLFK 312053Z AUTO VRB03KT 10SM SCT045 BKN070 BKN095 32/23 A2989 RMK AO2 RAB00E10 SLP116 P0000 60000 T03220233 56022
Pressure 29.88 in
Visibility 10.0 miles
Clouds Scattered Clouds 4500 ft
Mostly Cloudy 7000 ft
Mostly Cloudy 9500 ft
Heat Index 87 °F
Dew Point Not available.
Humidity Not available.
Rainfall in
Snow Depth Not available.
6:54 AM 7:42 PM
Waning Crescent, 0% visible
METAR KLFK 312053Z AUTO VRB03KT 10SM SCT045 BKN070 BKN095 32/23 A2989 RMK AO2 RAB00E10 SLP116 P0000 60000 T03220233 56022

10-Day Weather Forecast

Almanac

Astronomy

Aug. 31, 2016 Rise Set
Actual Time
Civil Twilight
Nautical Twilight
Astronomical Twilight
Moon
Length of Visible Light
Length of Day
Tomorrow will be .
, % of the Moon is Illuminated

Today's Extremes

State Highs State Lows

Community

WunderPhotos

Upload Photos

1,936,189 photos uploaded!

WunderBlog® & News

Nearby

Air Quality

  Air Quality AQ Index Pollutant
Not available.

Snow Depth

Station Depth Elevation

Earthquake Activity

City Distance Mag. Time & Date
Minimum magnitude displayed is 2.5.

Coastal Water Temperatures

Place Temperature

Stations

Nearby Weather Stations

Station Location Temp. Windchill Dew Point Humidity Wind Precip. Elev Updated Type
                   

Watches & Warnings

There are currently no watches in effect.